Time;durP1;ratioP1;P1;durP2;ratioP2;P2;SDS_P1;SDS_P2;PMS_P1;PMS_P2;Temp;Humidity;BMP_temperature;BMP_pressure;BME280_temperature;BME280_humidity;BME280_pressure;Samples;Min_cycle;Max_cycle;Signal;HPM_P1;HPM_P2
2022/06/30 00:00:36;;;;;;;5.97;3.87;;;;;;;20.08;88.27;97752.28;5076620;28;20216;-70
2022/06/30 00:03:03;;;;;;;5.93;4.30;;;;;;;20.05;88.55;97762.84;5076883;28;20296;-70
2022/06/30 00:05:30;;;;;;;6.07;5.07;;;;;;;20.01;89.00;97754.50;5076494;28;20663;-70
2022/06/30 00:07:56;;;;;;;6.07;4.57;;;;;;;20.00;89.67;97752.09;5076729;28;20201;-70
2022/06/30 00:10:23;;;;;;;6.63;5.00;;;;;;;19.96;90.37;97753.75;5076683;28;20291;-70
2022/06/30 00:12:49;;;;;;;7.40;4.77;;;;;;;19.95;90.44;97762.94;5076350;28;20304;-70
2022/06/30 00:15:16;;;;;;;6.07;4.70;;;;;;;19.92;90.79;97764.31;5076315;28;20208;-70
2022/06/30 00:17:42;;;;;;;6.23;4.87;;;;;;;19.91;90.78;97764.59;5076468;28;20217;-70
2022/06/30 00:20:09;;;;;;;6.17;5.07;;;;;;;19.90;91.70;97763.00;5076191;28;20635;-70
2022/06/30 00:22:36;;;;;;;6.77;5.60;;;;;;;19.85;91.80;97760.34;5077363;28;20204;-70
2022/06/30 00:25:03;;;;;;;7.30;5.07;;;;;;;19.83;92.49;97757.13;5076464;28;20295;-70
2022/06/30 00:27:30;;;;;;;6.57;5.67;;;;;;;19.80;93.73;97757.72;5076408;28;20204;-70
2022/06/30 00:29:56;;;;;;;9.83;6.33;;;;;;;19.73;94.54;97755.34;5076337;28;20235;-70
2022/06/30 00:32:23;;;;;;;6.67;6.07;;;;;;;19.75;94.66;97755.84;5076335;28;20283;-70
2022/06/30 00:34:49;;;;;;;8.90;6.77;;;;;;;19.76;95.34;97752.06;5075956;28;20254;-70
2022/06/30 00:37:16;;;;;;;7.47;6.13;;;;;;;19.82;96.07;97753.63;5076188;28;20231;-70
2022/06/30 00:39:42;;;;;;;8.00;7.00;;;;;;;19.81;95.90;97759.31;5076124;28;20311;-70
2022/06/30 00:42:08;;;;;;;8.80;7.10;;;;;;;19.83;96.38;97752.53;5076108;28;20212;-70
2022/06/30 00:44:35;;;;;;;10.17;6.73;;;;;;;19.80;97.00;97755.78;5076116;28;20234;-70
2022/06/30 00:47:01;;;;;;;9.30;7.03;;;;;;;19.77;98.18;97757.16;5076105;28;20215;-70
2022/06/30 00:49:28;;;;;;;7.90;7.20;;;;;;;19.76;98.36;97757.44;5075667;28;20224;-70
2022/06/30 00:51:55;;;;;;;8.00;7.20;;;;;;;19.80;98.84;97750.41;5075455;28;20215;-70
2022/06/30 00:54:22;;;;;;;7.63;6.87;;;;;;;19.76;99.67;97745.88;5075483;28;20749;-70
2022/06/30 00:56:51;;;;;;;8.80;7.97;;;;;;;19.77;99.84;97744.78;5075877;28;20220;-70
2022/06/30 00:59:18;;;;;;;14.00;7.87;;;;;;;19.73;100.00;97731.84;5075687;28;20229;-70
2022/06/30 01:01:46;;;;;;;8.60;7.70;;;;;;;19.67;100.00;97736.78;5075405;28;20645;-70
2022/06/30 01:04:14;;;;;;;9.37;8.20;;;;;;;19.64;100.00;97738.16;5075760;28;20204;-70
2022/06/30 01:06:44;;;;;;;9.37;7.57;;;;;;;19.60;100.00;97743.31;5075404;28;20200;-70
2022/06/30 01:09:11;;;;;;;8.90;8.10;;;;;;;19.65;100.00;97734.38;5074046;28;20794;-70
2022/06/30 01:14:21;;;;;;;8.53;7.70;;;;;;;19.59;100.00;97732.81;5075421;28;20222;-70
2022/06/30 01:16:48;;;;;;;8.53;7.73;;;;;;;19.55;100.00;97734.47;5075528;28;20231;-70
2022/06/30 01:19:17;;;;;;;7.67;6.97;;;;;;;19.49;100.00;97732.91;5075056;28;20230;-70
2022/06/30 01:22:02;;;;;;;7.63;6.93;;;;;;;19.44;100.00;97733.75;5075137;28;20758;-70
2022/06/30 01:24:28;;;;;;;11.93;7.67;;;;;;;19.43;100.00;97731.34;5075395;28;20279;-70
2022/06/30 01:26:58;;;;;;;8.40;7.60;;;;;;;19.42;100.00;97732.44;5076085;28;20207;-70
2022/06/30 01:29:25;;;;;;;8.67;7.87;;;;;;;19.43;100.00;97732.16;5075173;28;20221;-70
2022/06/30 01:31:51;;;;;;;8.33;7.53;;;;;;;19.40;100.00;97724.63;5075251;28;20638;-70
2022/06/30 01:34:18;;;;;;;9.87;7.27;;;;;;;19.36;100.00;97723.56;5075075;28;20207;-70
2022/06/30 01:36:44;;;;;;;8.17;6.93;;;;;;;19.35;100.00;97726.56;5075048;28;20708;-70
2022/06/30 01:39:10;;;;;;;9.03;7.93;;;;;;;19.34;100.00;97728.47;5074596;28;20228;-70
2022/06/30 01:41:37;;;;;;;9.67;7.53;;;;;;;19.32;100.00;97727.91;5075064;28;20575;-70
2022/06/30 01:44:03;;;;;;;9.97;7.90;;;;;;;19.30;100.00;97721.19;5075024;28;20210;-70
2022/06/30 01:46:30;;;;;;;9.70;7.90;;;;;;;19.28;100.00;97718.78;5074901;28;20216;-70
2022/06/30 01:48:56;;;;;;;8.80;7.90;;;;;;;19.21;100.00;97720.16;5074832;28;20250;-70
2022/06/30 01:51:23;;;;;;;8.60;7.80;;;;;;;19.16;100.00;97717.50;5074813;28;20205;-70
2022/06/30 01:53:49;;;;;;;9.53;8.27;;;;;;;19.14;100.00;97712.41;5074766;28;20211;-70
2022/06/30 01:56:15;;;;;;;9.03;7.70;;;;;;;19.10;100.00;97714.03;5074687;28;20292;-70
2022/06/30 01:58:42;;;;;;;8.27;7.57;;;;;;;18.99;100.00;97711.72;5074967;28;20225;-70
2022/06/30 02:01:08;;;;;;;9.27;8.03;;;;;;;19.03;100.00;97716.28;5074320;28;20291;-70
2022/06/30 02:03:35;;;;;;;8.40;7.33;;;;;;;18.92;100.00;97714.72;5074078;28;20575;-70
2022/06/30 02:06:01;;;;;;;9.77;7.80;;;;;;;18.88;100.00;97712.88;5074019;28;20295;-70
2022/06/30 02:08:27;;;;;;;8.50;7.57;;;;;;;18.80;100.00;97706.19;5074398;28;20256;-70
2022/06/30 02:10:54;;;;;;;7.97;7.27;;;;;;;18.88;100.00;97708.31;5074481;28;20204;-70
2022/06/30 02:13:20;;;;;;;10.77;7.67;;;;;;;18.83;100.00;97711.00;5074382;28;20212;-70
2022/06/30 02:15:47;;;;;;;7.93;7.20;;;;;;;18.77;100.00;97714.03;5074337;28;20295;-70
2022/06/30 02:18:13;;;;;;;9.13;7.40;;;;;;;18.78;100.00;97712.94;5073921;28;20706;-70
2022/06/30 02:20:39;;;;;;;8.10;7.37;;;;;;;18.75;100.00;97713.50;5073794;28;20193;-70
2022/06/30 02:23:06;;;;;;;8.60;7.47;;;;;;;18.75;100.00;97711.63;5074229;28;20295;-70
2022/06/30 02:25:33;;;;;;;7.87;7.13;;;;;;;18.82;100.00;97705.94;5074146;28;20204;-70
2022/06/30 02:28:02;;;;;;;7.87;7.17;;;;;;;18.75;100.00;97703.53;5073748;28;20299;-70
2022/06/30 02:30:28;;;;;;;8.07;7.23;;;;;;;18.79;100.00;97706.47;5074080;28;20299;-70
2022/06/30 02:32:55;;;;;;;7.70;7.00;;;;;;;18.79;100.00;97709.16;5073929;28;20211;-70
2022/06/30 02:35:21;;;;;;;8.07;7.23;;;;;;;18.74;100.00;97709.19;5073991;28;20398;-69
2022/06/30 02:37:48;;;;;;;8.17;7.37;;;;;;;18.64;100.00;97710.06;5074298;28;20212;-70
2022/06/30 02:40:14;;;;;;;9.10;6.73;;;;;;;18.59;100.00;97704.69;5073561;28;20215;-70
2022/06/30 02:42:41;;;;;;;10.87;7.30;;;;;;;18.54;100.00;97712.81;5073559;28;20212;-70
2022/06/30 02:45:08;;;;;;;8.07;7.27;;;;;;;18.49;100.00;97710.16;5073836;28;20573;-70
2022/06/30 02:47:37;;;;;;;8.20;7.40;;;;;;;18.47;100.00;97709.63;5073436;28;20652;-70
2022/06/30 02:50:06;;;;;;;8.20;7.43;;;;;;;18.42;100.00;97706.16;5073661;28;20576;-70
2022/06/30 02:52:36;;;;;;;7.90;7.10;;;;;;;18.39;100.00;97704.81;5073704;28;20209;-70
2022/06/30 02:55:05;;;;;;;8.40;7.57;;;;;;;18.39;100.00;97709.38;5073698;28;20200;-70
2022/06/30 02:57:31;;;;;;;8.77;7.17;;;;;;;18.43;100.00;97697.81;5073402;28;20209;-70
2022/06/30 02:59:58;;;;;;;7.60;6.83;;;;;;;18.37;100.00;97704.28;5073492;28;20239;-70
2022/06/30 03:02:25;;;;;;;7.67;6.20;;;;;;;18.34;100.00;97706.72;5074147;28;20200;-70
2022/06/30 03:04:51;;;;;;;6.43;5.93;;;;;;;18.35;100.00;97698.38;5073080;28;20212;-70
2022/06/30 03:07:18;;;;;;;7.17;5.80;;;;;;;18.30;100.00;97700.25;5073485;28;20291;-70
2022/06/30 03:09:44;;;;;;;6.20;5.70;;;;;;;18.27;100.00;97701.59;5073403;28;20216;-70
2022/06/30 03:12:11;;;;;;;8.50;5.73;;;;;;;18.25;100.00;97698.41;5073121;28;20295;-70
2022/06/30 03:14:38;;;;;;;6.07;5.47;;;;;;;18.34;100.00;97702.16;5073050;28;20758;-70
2022/06/30 03:17:04;;;;;;;8.23;4.97;;;;;;;18.34;100.00;97706.72;5072969;28;20291;-70
2022/06/30 03:19:31;;;;;;;5.67;5.17;;;;;;;18.39;100.00;97704.00;5072809;28;20590;-70
2022/06/30 03:21:57;;;;;;;5.60;5.10;;;;;;;18.32;100.00;97698.91;5073099;28;20216;-70
2022/06/30 03:24:24;;;;;;;5.43;4.93;;;;;;;18.27;100.00;97706.22;5074197;28;20555;-70
2022/06/30 03:26:50;;;;;;;8.93;4.90;;;;;;;18.27;100.00;97700.81;5073027;28;20208;-70
2022/06/30 03:29:17;;;;;;;5.83;4.67;;;;;;;18.23;100.00;97710.53;5073752;28;20225;-70
2022/06/30 03:31:44;;;;;;;6.40;5.10;;;;;;;18.18;100.00;97697.09;5073263;28;20311;-70
2022/06/30 03:34:10;;;;;;;5.43;4.67;;;;;;;18.16;100.00;97705.44;5073943;28;20212;-70
2022/06/30 03:36:37;;;;;;;6.90;5.07;;;;;;;18.09;100.00;97701.44;5072819;28;20204;-70
2022/06/30 03:39:03;;;;;;;7.20;4.93;;;;;;;18.18;100.00;97708.66;5072795;28;20315;-70
2022/06/30 03:41:29;;;;;;;5.37;4.70;;;;;;;18.17;100.00;97701.66;5073049;28;20291;-70
2022/06/30 03:43:56;;;;;;;4.87;4.47;;;;;;;18.25;100.00;97697.59;5072653;28;20208;-70
2022/06/30 03:46:22;;;;;;;5.83;5.10;;;;;;;18.22;100.00;97698.94;5072795;28;20306;-70
2022/06/30 03:48:49;;;;;;;7.03;5.17;;;;;;;18.21;100.00;97696.53;5072544;28;20225;-70
2022/06/30 03:51:15;;;;;;;7.00;5.00;;;;;;;18.24;100.00;97696.78;5072720;28;20204;-70
2022/06/30 03:53:41;;;;;;;6.63;5.10;;;;;;;18.26;100.00;97694.63;5072415;28;20739;-70
2022/06/30 03:56:08;;;;;;;7.43;5.67;;;;;;;18.30;100.00;97703.75;5072028;28;20212;-70
2022/06/30 03:58:35;;;;;;;6.23;5.63;;;;;;;18.28;100.00;97695.16;5072040;28;20585;-70
2022/06/30 04:01:01;;;;;;;8.03;6.03;;;;;;;18.29;100.00;97696.78;5073391;28;20299;-70
2022/06/30 04:03:28;;;;;;;9.07;6.77;;;;;;;18.29;100.00;97699.47;5072616;28;20205;-70
2022/06/30 04:05:55;;;;;;;8.27;7.43;;;;;;;18.41;100.00;97707.25;5072251;28;20671;-70
2022/06/30 04:08:21;;;;;;;8.93;7.80;;;;;;;18.43;100.00;97697.00;5072405;28;20227;-70
2022/06/30 04:10:47;;;;;;;8.57;7.87;;;;;;;18.45;100.00;97701.00;5072560;28;20209;-70
2022/06/30 04:13:14;;;;;;;8.47;7.67;;;;;;;18.51;100.00;97696.41;5072249;28;20672;-70
2022/06/30 04:15:40;;;;;;;9.60;8.60;;;;;;;18.53;100.00;97697.75;5072582;28;20213;-70
2022/06/30 04:18:07;;;;;;;9.57;8.63;;;;;;;18.54;100.00;97707.44;5071975;28;20234;-70
2022/06/30 04:20:33;;;;;;;9.87;8.90;;;;;;;18.59;100.00;97709.31;5072528;28;20209;-70
2022/06/30 04:23:00;;;;;;;9.90;8.90;;;;;;;18.61;100.00;97699.03;5072372;28;20317;-69
2022/06/30 04:25:26;;;;;;;10.37;9.30;;;;;;;18.69;100.00;97701.94;5072487;28;20207;-69
2022/06/30 04:27:57;;;;;;;9.50;8.60;;;;;;;18.69;100.00;97704.63;5073434;28;20291;-69
2022/06/30 04:33:05;;;;;;;9.47;8.23;;;;;;;18.71;100.00;97701.66;5075566;28;20204;-70
2022/06/30 04:35:31;;;;;;;10.23;8.30;;;;;;;18.75;100.00;97708.94;5076048;28;20192;-69
2022/06/30 04:37:59;;;;;;;8.70;7.90;;;;;;;18.76;100.00;97715.09;5075709;28;20204;-70
2022/06/30 04:43:11;;;;;;;8.40;7.70;;;;;;;18.79;100.00;97703.78;5074681;28;20653;-69
2022/06/30 04:45:37;;;;;;;9.27;8.40;;;;;;;18.83;100.00;97697.53;5075140;28;20663;-69
2022/06/30 04:48:04;;;;;;;9.47;8.07;;;;;;;18.91;100.00;97702.34;5076020;28;20316;-69
2022/06/30 04:50:31;;;;;;;10.53;7.93;;;;;;;18.94;100.00;97699.09;5075425;28;20239;-69
2022/06/30 04:52:57;;;;;;;8.93;7.33;;;;;;;18.98;100.00;97697.44;5075433;28;20773;-69
2022/06/30 04:55:24;;;;;;;7.80;7.00;;;;;;;19.06;100.00;97704.94;5075278;28;20578;-70
2022/06/30 04:57:50;;;;;;;10.57;8.37;;;;;;;19.12;100.00;97694.91;5075102;28;20299;-70
2022/06/30 05:00:17;;;;;;;9.03;7.63;;;;;;;19.14;100.00;97692.75;5075313;28;20316;-70
2022/06/30 05:02:43;;;;;;;9.07;8.03;;;;;;;19.21;100.00;97688.66;5074995;28;20659;-70
2022/06/30 05:05:10;;;;;;;8.20;7.37;;;;;;;19.25;100.00;97680.81;5075115;28;20209;-70
2022/06/30 05:07:37;;;;;;;6.83;6.33;;;;;;;19.41;99.03;97688.47;5074915;28;20258;-69
2022/06/30 05:10:04;;;;;;;10.17;6.80;;;;;;;19.57;96.40;97682.97;5074880;28;20223;-70
2022/06/30 05:12:30;;;;;;;10.30;6.67;;;;;;;19.83;94.08;97695.88;5074595;28;20212;-69
2022/06/30 05:14:58;;;;;;;7.03;6.33;;;;;;;20.23;92.12;97691.94;5075168;28;20283;-70
2022/06/30 05:17:25;;;;;;;6.40;5.87;;;;;;;20.24;92.20;97690.84;5074729;28;20552;-70
2022/06/30 05:19:52;;;;;;;7.13;5.40;;;;;;;20.49;91.48;97694.03;5074506;28;20232;-69
2022/06/30 05:22:18;;;;;;;8.27;6.13;;;;;;;21.26;83.95;97693.41;5074249;28;20204;-69
2022/06/30 05:27:29;;;;;;;8.52;5.72;;;;;;;22.11;79.15;97694.59;5074406;28;20195;-69
2022/06/30 05:29:55;;;;;;;10.77;6.35;;;;;;;22.16;78.06;97701.81;5074278;28;20311;-70
2022/06/30 05:32:21;;;;;;;6.93;6.00;;;;;;;22.05;80.49;97695.81;5074413;28;20212;-69
2022/06/30 05:34:48;;;;;;;6.70;6.00;;;;;;;21.81;80.22;97691.69;5074664;28;20204;-70
2022/06/30 05:37:14;;;;;;;11.02;6.00;;;;;;;21.51;81.04;97686.78;5074304;28;20671;-69
2022/06/30 05:39:41;;;;;;;8.80;6.28;;;;;;;21.44;82.74;97689.88;5073998;28;20323;-69
2022/06/30 05:42:07;;;;;;;6.78;6.10;;;;;;;21.31;83.00;97692.53;5074164;28;20663;-69
2022/06/30 05:44:33;;;;;;;7.32;6.60;;;;;;;21.50;82.97;97696.00;5073945;28;20209;-69
2022/06/30 05:47:00;;;;;;;9.48;6.05;;;;;;;21.32;86.02;97694.97;5073888;28;20212;-69
2022/06/30 05:49:27;;;;;;;8.27;6.33;;;;;;;21.22;85.54;97687.03;5073837;28;20774;-70
2022/06/30 05:51:54;;;;;;;8.23;5.97;;;;;;;21.28;83.79;97693.94;5074348;28;20208;-68
2022/06/30 05:54:21;;;;;;;7.10;5.73;;;;;;;21.34;83.99;97691.97;5073979;28;20215;-69
2022/06/30 05:56:47;;;;;;;8.37;6.47;;;;;;;21.59;81.78;97691.50;5073470;28;20212;-69
2022/06/30 05:59:13;;;;;;;7.57;5.93;;;;;;;21.54;82.22;97683.47;5073744;28;20698;-72
2022/06/30 06:01:40;;;;;;;9.38;6.70;;;;;;;21.60;81.94;97674.97;5073704;28;20204;-71
2022/06/30 06:04:06;;;;;;;7.70;6.20;;;;;;;21.53;82.83;97681.88;5074074;28;20308;-70
2022/06/30 06:06:33;;;;;;;9.03;6.87;;;;;;;21.73;81.98;97678.84;5073681;28;20291;-70
2022/06/30 06:08:59;;;;;;;10.83;6.53;;;;;;;21.84;81.98;97691.09;5073494;28;20778;-70
2022/06/30 06:11:30;;;;;;;7.38;6.20;;;;;;;21.90;79.55;97681.75;5073621;28;20211;-70
2022/06/30 06:13:57;;;;;;;9.10;6.53;;;;;;;21.74;80.62;97685.84;5073606;28;20185;-70
2022/06/30 06:16:24;;;;;;;10.07;7.15;;;;;;;21.63;81.09;97689.81;5073213;28;20213;-70
2022/06/30 06:18:51;;;;;;;7.43;6.57;;;;;;;21.88;80.36;97692.88;5073138;28;20240;-70
2022/06/30 06:21:18;;;;;;;9.50;7.57;;;;;;;21.89;79.72;97682.88;5073421;28;20705;-70
2022/06/30 06:23:44;;;;;;;12.70;9.80;;;;;;;21.76;80.53;97689.06;5074076;28;20374;-70
2022/06/30 06:26:12;;;;;;;17.87;15.10;;;;;;;21.72;80.35;97677.22;5073513;28;20208;-70
2022/06/30 06:31:25;;;;;;;14.30;12.13;;;;;;;21.78;81.54;97690.38;5069674;28;20200;-70
2022/06/30 06:33:51;;;;;;;8.27;7.32;;;;;;;21.82;81.04;97685.97;5073492;28;20299;-70
2022/06/30 06:36:18;;;;;;;11.33;7.80;;;;;;;22.13;80.30;97688.88;5073118;28;20292;-70
2022/06/30 06:38:44;;;;;;;11.13;8.02;;;;;;;22.00;80.27;97678.84;5073242;28;20235;-70
2022/06/30 06:41:11;;;;;;;10.93;9.82;;;;;;;22.08;79.26;97670.03;5073400;28;20212;-71
2022/06/30 06:43:37;;;;;;;9.75;8.02;;;;;;;22.15;79.18;97676.66;5073224;28;20204;-70
2022/06/30 06:46:04;;;;;;;8.85;6.57;;;;;;;22.36;79.07;97674.31;5073227;28;20205;-70
2022/06/30 06:48:30;;;;;;;15.88;11.02;;;;;;;22.32;78.36;97668.72;5073039;28;20592;-70
2022/06/30 06:50:57;;;;;;;13.82;6.72;;;;;;;22.43;79.54;97672.00;5072632;28;20207;-70
2022/06/30 06:53:23;;;;;;;10.93;6.70;;;;;;;22.56;78.52;97671.22;5073236;28;20287;-70
2022/06/30 06:55:54;;;;;;;9.32;6.20;;;;;;;22.74;77.96;97670.25;5073139;28;20208;-70
2022/06/30 06:58:20;;;;;;;16.63;13.07;;;;;;;22.60;76.59;97677.59;5072715;28;20327;-70
2022/06/30 07:00:46;;;;;;;7.63;6.50;;;;;;;22.72;78.45;97684.13;5073008;28;20228;-70
2022/06/30 07:03:13;;;;;;;9.82;8.50;;;;;;;22.90;75.99;97677.72;5073285;28;20205;-70
2022/06/30 07:05:39;;;;;;;9.55;5.50;;;;;;;22.87;77.17;97677.53;5073298;28;20236;-70
2022/06/30 07:08:06;;;;;;;18.88;16.35;;;;;;;22.88;76.18;97681.88;5072712;28;20231;-70
2022/06/30 07:10:32;;;;;;;17.45;15.05;;;;;;;22.94;76.56;97683.34;5072912;28;20207;-69
2022/06/30 07:12:59;;;;;;;7.93;6.15;;;;;;;23.11;76.97;97669.91;5072940;28;20200;-69
2022/06/30 07:15:25;;;;;;;16.50;11.48;;;;;;;23.18;74.92;97679.22;5072614;28;20261;-70
2022/06/30 07:17:51;;;;;;;13.30;11.95;;;;;;;23.12;74.86;97674.22;5072382;28;20552;-68
2022/06/30 07:20:18;;;;;;;29.45;26.35;;;;;;;23.20;73.70;97677.03;5073116;28;20234;-70
2022/06/30 07:22:44;;;;;;;11.75;8.48;;;;;;;23.25;75.09;97686.97;5073024;28;20204;-70
2022/06/30 07:25:11;;;;;;;16.98;15.02;;;;;;;23.45;73.61;97678.31;5072839;28;20215;-70
2022/06/30 07:27:37;;;;;;;10.25;6.00;;;;;;;23.66;72.68;97676.69;5072815;28;20291;-70
2022/06/30 07:30:05;;;;;;;8.32;5.63;;;;;;;23.80;72.56;97674.66;5072949;28;20310;-70
2022/06/30 07:32:31;;;;;;;9.02;7.22;;;;;;;23.86;71.70;97684.25;5073160;28;20215;-70
2022/06/30 07:34:58;;;;;;;13.05;11.73;;;;;;;23.80;71.75;97674.66;5072948;28;20781;-70
2022/06/30 07:37:24;;;;;;;15.57;11.23;;;;;;;23.95;70.55;97672.38;5073136;28;20204;-70
2022/06/30 07:39:52;;;;;;;6.32;4.80;;;;;;;23.96;69.25;97684.00;5072836;28;20239;-70
2022/06/30 07:42:18;;;;;;;8.73;4.95;;;;;;;24.11;67.89;97670.03;5072655;28;20208;-70
2022/06/30 07:44:44;;;;;;;5.28;4.50;;;;;;;24.32;66.25;97660.16;5072699;28;20684;-69
2022/06/30 07:47:11;;;;;;;31.83;27.05;;;;;;;24.23;67.29;97681.06;5072919;28;20295;-70
2022/06/30 07:49:38;;;;;;;21.33;19.10;;;;;;;24.19;66.34;97672.75;5072356;28;20698;-70
2022/06/30 07:52:05;;;;;;;10.02;7.20;;;;;;;24.18;66.29;97673.88;5072813;28;20205;-69
2022/06/30 07:54:32;;;;;;;21.02;18.27;;;;;;;24.34;66.43;97668.81;5072501;28;20857;-70
2022/06/30 07:56:58;;;;;;;24.75;22.25;;;;;;;24.33;66.10;97664.50;5072257;28;20258;-70
2022/06/30 07:59:24;;;;;;;5.47;4.78;;;;;;;24.44;67.88;97663.88;5072404;28;20262;-69
2022/06/30 08:01:51;;;;;;;15.57;13.73;;;;;;;24.49;65.95;97657.47;5073788;28;20675;-70
2022/06/30 08:04:17;;;;;;;12.05;10.88;;;;;;;24.50;65.09;97657.16;5076119;28;20695;-69
2022/06/30 08:06:44;;;;;;;5.03;4.43;;;;;;;24.73;65.19;97660.56;5076218;28;20228;-70
2022/06/30 08:09:11;;;;;;;30.02;27.05;;;;;;;24.71;65.78;97652.75;5076291;28;20239;-70
2022/06/30 08:11:38;;;;;;;8.65;6.28;;;;;;;24.80;65.78;97650.03;5076410;28;20200;-70
2022/06/30 08:14:05;;;;;;;25.00;19.48;;;;;;;24.79;65.93;97649.22;5076537;28;20303;-70
2022/06/30 08:16:32;;;;;;;11.73;10.05;;;;;;;24.99;66.35;97651.31;5076020;28;20630;-70
2022/06/30 08:18:58;;;;;;;23.38;20.98;;;;;;;25.07;64.38;97647.78;5075948;28;20260;-69
2022/06/30 08:21:25;;;;;;;14.95;13.27;;;;;;;25.01;63.99;97651.00;5076000;28;20319;-69
2022/06/30 08:23:51;;;;;;;13.73;9.32;;;;;;;25.20;64.16;97649.50;5075543;28;20693;-70
2022/06/30 08:26:17;;;;;;;6.00;4.90;;;;;;;25.29;63.06;97660.44;5075661;28;20647;-69
2022/06/30 08:28:44;;;;;;;6.25;4.70;;;;;;;25.09;62.85;97659.13;5075579;28;20220;-70
2022/06/30 08:31:11;;;;;;;6.90;4.63;;;;;;;25.38;62.79;97666.66;5075994;28;20201;-69
2022/06/30 08:33:38;;;;;;;5.57;4.35;;;;;;;25.42;62.05;97662.16;5075791;28;20215;-69
2022/06/30 08:36:04;;;;;;;7.07;5.03;;;;;;;25.63;61.86;97652.97;5076226;28;20204;-70
2022/06/30 08:38:31;;;;;;;9.20;6.97;;;;;;;25.69;61.28;97654.41;5075449;28;20234;-69
2022/06/30 08:43:44;;;;;;;4.55;4.15;;;;;;;25.74;61.09;97654.22;5075895;28;20247;-69
2022/06/30 08:46:11;;;;;;;5.38;3.90;;;;;;;25.95;60.25;97646.97;5076076;28;20238;-69
2022/06/30 08:48:37;;;;;;;5.97;5.00;;;;;;;25.97;58.81;97646.63;5075541;28;20703;-69
2022/06/30 08:51:08;;;;;;;6.25;5.65;;;;;;;25.82;59.12;97647.16;5075225;28;20295;-69
2022/06/30 08:54:04;;;;;;;5.40;3.80;;;;;;;25.74;58.89;97645.25;5075296;28;20204;-70
2022/06/30 08:56:35;;;;;;;8.65;7.30;;;;;;;25.80;57.62;97639.31;5062567;28;20629;-70
2022/06/30 08:59:04;;;;;;;8.50;5.15;;;;;;;25.65;59.02;97633.59;5075597;28;20265;-70
2022/06/30 09:01:31;;;;;;;7.38;6.65;;;;;;;25.60;60.05;97620.16;5075444;28;20228;-69
2022/06/30 09:03:58;;;;;;;34.60;30.92;;;;;;;25.90;59.59;97630.78;5075132;28;20767;-69
2022/06/30 09:06:25;;;;;;;55.95;50.20;;;;;;;25.87;60.67;97625.19;5075393;28;20211;-70
2022/06/30 09:08:51;;;;;;;5.25;4.38;;;;;;;25.74;59.27;97621.53;5074902;28;20604;-69
2022/06/30 09:11:18;;;;;;;4.90;4.38;;;;;;;26.18;59.62;97615.59;5075299;28;20284;-69
2022/06/30 09:13:48;;;;;;;33.63;30.08;;;;;;;26.23;58.13;97614.63;5074669;28;20292;-69
2022/06/30 09:16:17;;;;;;;19.88;17.92;;;;;;;26.59;58.20;97625.78;5076137;28;20205;-69
2022/06/30 09:18:45;;;;;;;12.48;11.23;;;;;;;26.65;56.50;97619.00;5074522;28;20232;-70
2022/06/30 09:21:16;;;;;;;12.88;10.45;;;;;;;26.53;55.67;97624.34;5075073;28;20323;-69
2022/06/30 09:23:45;;;;;;;4.20;3.80;;;;;;;26.78;53.79;97620.66;5075037;28;20290;-69
2022/06/30 09:26:21;;;;;;;15.88;13.63;;;;;;;27.10;51.06;97622.63;5074507;28;20663;-69
2022/06/30 09:28:54;;;;;;;4.53;4.05;;;;;;;27.33;52.20;97615.66;5074499;28;20235;-70
2022/06/30 09:31:38;;;;;;;78.00;69.93;;;;;;;26.97;52.56;97615.50;5075269;28;20226;-69
2022/06/30 09:34:19;;;;;;;4.70;4.15;;;;;;;26.93;51.93;97612.66;5074972;28;20189;-69
2022/06/30 09:36:49;;;;;;;6.40;3.60;;;;;;;27.05;50.36;97617.38;5074712;28;20192;-69
2022/06/30 09:39:18;;;;;;;21.42;17.17;;;;;;;26.99;51.39;97605.03;5075022;28;20299;-69
2022/06/30 09:41:45;;;;;;;6.97;3.95;;;;;;;27.48;48.77;97604.09;5074348;28;20230;-69
2022/06/30 09:44:21;;;;;;;13.00;11.75;;;;;;;27.59;47.98;97605.25;5074156;28;20211;-69
2022/06/30 09:47:02;;;;;;;9.90;8.85;;;;;;;27.49;45.20;97605.69;5074528;28;20254;-69
2022/06/30 09:49:33;;;;;;;11.25;10.23;;;;;;;27.36;47.81;97609.53;5074426;28;20234;-71
2022/06/30 09:52:02;;;;;;;4.70;3.40;;;;;;;27.14;46.92;97616.13;5074539;28;20200;-69
2022/06/30 09:54:32;;;;;;;27.80;3.95;;;;;;;27.19;48.39;97601.53;5074286;28;20251;-69
2022/06/30 09:57:04;;;;;;;5.97;5.38;;;;;;;27.42;48.24;97591.81;5074428;28;20587;-69
2022/06/30 09:59:31;;;;;;;10.23;9.32;;;;;;;27.82;46.33;97584.59;5074219;28;20231;-70
2022/06/30 10:01:58;;;;;;;7.20;5.95;;;;;;;27.81;44.74;97590.41;5073863;28;20681;-69
2022/06/30 10:04:25;;;;;;;6.78;3.13;;;;;;;28.23;46.60;97586.28;5074271;28;20200;-69
2022/06/30 10:06:53;;;;;;;7.03;6.30;;;;;;;28.16;45.05;97583.34;5073849;28;20213;-69
2022/06/30 10:09:20;;;;;;;7.82;4.70;;;;;;;27.95;43.95;97590.84;5073799;28;20311;-69
2022/06/30 10:11:48;;;;;;;4.72;2.70;;;;;;;27.96;42.27;97597.91;5074615;28;20512;-69
2022/06/30 10:14:17;;;;;;;7.03;4.82;;;;;;;27.14;44.38;97593.53;5074034;28;20204;-69
2022/06/30 10:16:44;;;;;;;22.02;19.88;;;;;;;27.55;45.64;97587.16;5074013;28;20287;-70
2022/06/30 10:19:11;;;;;;;14.02;11.48;;;;;;;27.61;45.49;97588.50;5073699;28;20271;-70
2022/06/30 10:21:39;;;;;;;7.57;6.82;;;;;;;27.53;46.25;97589.44;5073861;28;20254;-69
2022/06/30 10:24:09;;;;;;;6.30;4.30;;;;;;;28.03;45.42;97587.22;5073436;28;20200;-69
2022/06/30 10:29:20;;;;;;;4.28;3.13;;;;;;;28.23;45.60;97570.69;5073420;28;20698;-69
2022/06/30 10:32:01;;;;;;;57.13;51.42;;;;;;;28.23;44.59;97578.06;5073726;28;20205;-69
2022/06/30 10:34:36;;;;;;;5.15;3.30;;;;;;;28.22;44.40;97574.53;5073142;28;20735;-69
2022/06/30 10:37:20;;;;;;;7.05;3.40;;;;;;;28.36;45.38;97577.72;5072729;28;20208;-69
2022/06/30 10:39:53;;;;;;;6.55;3.00;;;;;;;28.14;44.81;97566.47;5073293;28;20314;-70
2022/06/30 10:42:42;;;;;;;37.10;33.70;;;;;;;27.84;45.65;97565.91;5072918;28;20185;-70
2022/06/30 10:45:26;;;;;;;12.98;11.63;;;;;;;28.23;47.02;97562.47;5073369;28;20203;-69
2022/06/30 10:48:07;;;;;;;28.38;24.40;;;;;;;28.18;45.06;97559.19;5073125;28;20667;-70
2022/06/30 10:50:45;;;;;;;20.45;18.33;;;;;;;28.12;44.94;97564.06;5072911;28;20201;-69
2022/06/30 10:53:16;;;;;;;15.07;13.45;;;;;;;28.27;45.83;97562.56;5073075;28;20651;-69
2022/06/30 10:55:54;;;;;;;4.25;2.78;;;;;;;28.64;44.92;97559.44;5073451;28;20193;-69
2022/06/30 10:58:21;;;;;;;5.68;3.30;;;;;;;28.97;44.03;97551.78;5073030;28;20228;-69
2022/06/30 11:00:56;;;;;;;5.80;3.13;;;;;;;29.21;43.55;97556.38;5073203;28;20273;-69
2022/06/30 11:03:32;;;;;;;5.90;3.28;;;;;;;28.75;42.25;97548.81;5072929;28;20267;-70
2022/06/30 11:06:01;;;;;;;4.10;2.75;;;;;;;28.97;41.90;97545.47;5072722;28;20657;-70
2022/06/30 11:08:39;;;;;;;4.28;2.90;;;;;;;29.10;43.10;97539.66;5072825;28;20228;-70
2022/06/30 11:11:31;;;;;;;4.53;3.03;;;;;;;29.17;43.13;97539.03;5073252;28;20297;-70
2022/06/30 11:14:04;;;;;;;9.35;8.23;;;;;;;28.86;42.99;97538.94;5072742;28;20204;-70
2022/06/30 11:16:40;;;;;;;3.85;3.20;;;;;;;28.89;42.21;97536.28;5072793;28;20659;-70
2022/06/30 11:19:15;;;;;;;3.60;3.00;;;;;;;29.02;42.77;97528.88;5072907;28;20318;-72
2022/06/30 11:21:46;;;;;;;4.55;2.97;;;;;;;28.91;42.18;97533.22;5072904;28;20208;-71
2022/06/30 11:24:16;;;;;;;4.03;2.90;;;;;;;28.87;41.50;97524.91;5073183;28;20215;-71
2022/06/30 11:29:27;;;;;;;8.07;5.63;;;;;;;28.43;42.91;97526.00;5072375;28;20269;-71
2022/06/30 11:32:00;;;;;;;4.03;3.13;;;;;;;28.90;42.11;97521.50;5071630;28;20575;-71
2022/06/30 11:34:28;;;;;;;5.20;2.95;;;;;;;29.33;38.96;97526.16;5072692;28;20559;-71
2022/06/30 11:36:55;;;;;;;44.33;40.03;;;;;;;28.85;39.87;97520.94;5074133;28;20204;-70
2022/06/30 11:39:22;;;;;;;4.35;3.45;;;;;;;29.16;40.23;97521.81;5076704;28;20319;-71
2022/06/30 11:41:56;;;;;;;8.23;6.65;;;;;;;28.92;39.79;97515.63;5076400;28;20224;-71
2022/06/30 11:44:33;;;;;;;9.60;8.65;;;;;;;28.70;39.07;97527.13;5076538;28;20192;-72
2022/06/30 11:47:01;;;;;;;13.35;10.18;;;;;;;28.66;40.26;97516.09;5076802;28;20274;-71
2022/06/30 11:49:43;;;;;;;14.18;12.90;;;;;;;28.59;40.03;97513.19;5076153;28;20655;-71
2022/06/30 11:52:24;;;;;;;16.92;15.32;;;;;;;28.60;41.03;97505.75;5076667;28;20192;-71